Time;durP1;ratioP1;P1;durP2;ratioP2;P2;SDS_P1;SDS_P2;PMS_P1;PMS_P2;Temp;Humidity;BMP_temperature;BMP_pressure;BME280_temperature;BME280_humidity;BME280_pressure;Samples;Min_cycle;Max_cycle;Signal;HPM_P1;HPM_P2
2021/08/04 00:00:28;;;;;;;0.70;0.67;;;;;;;13.24;100.00;-21041.84;5055520;28;20417;-70
2021/08/04 00:02:57;;;;;;;0.80;0.77;;;;;;;13.18;100.00;-21040.19;5053814;28;20519;-70
2021/08/04 00:05:26;;;;;;;0.80;0.80;;;;;;;13.13;100.00;-21038.97;5053092;28;21008;-70
2021/08/04 00:07:55;;;;;;;0.70;0.60;;;;;;;13.11;100.00;-21038.28;5054444;28;20513;-70
2021/08/04 00:10:24;;;;;;;0.77;0.70;;;;;;;13.08;100.00;-21037.59;5036838;28;20487;-70
2021/08/04 00:12:54;;;;;;;0.70;0.70;;;;;;;13.04;100.00;-21036.47;5053949;28;20459;-71
2021/08/04 00:15:26;;;;;;;1.40;1.30;;;;;;;13.01;100.00;-21035.78;5050724;28;20462;-70
2021/08/04 00:17:54;;;;;;;0.90;0.90;;;;;;;12.97;100.00;-21034.53;5037385;28;20452;-72
2021/08/04 00:20:23;;;;;;;0.70;0.60;;;;;;;12.99;100.00;-21035.09;5054546;28;20494;-71
2021/08/04 00:22:52;;;;;;;0.70;0.70;;;;;;;12.97;100.00;-21034.69;5053360;28;20455;-70
2021/08/04 00:25:20;;;;;;;0.70;0.60;;;;;;;13.03;100.00;-21036.34;5053717;28;20490;-70
2021/08/04 00:27:47;;;;;;;0.70;0.60;;;;;;;13.04;100.00;-21036.63;5037523;28;20858;-70
2021/08/04 00:30:15;;;;;;;0.70;0.60;;;;;;;13.08;100.00;-21037.44;5037652;28;20546;-70
2021/08/04 00:32:44;;;;;;;0.80;0.77;;;;;;;13.11;100.00;-21038.28;5049982;28;20801;-71
2021/08/04 00:35:12;;;;;;;0.70;0.70;;;;;;;13.13;100.00;-21038.81;5017352;28;20441;-71
2021/08/04 00:37:39;;;;;;;0.70;0.70;;;;;;;13.13;100.00;-21038.81;5033502;28;20936;-70
2021/08/04 00:40:09;;;;;;;0.70;0.60;;;;;;;13.08;100.00;-21037.59;5017128;28;20446;-70
2021/08/04 00:42:36;;;;;;;0.70;0.70;;;;;;;12.98;100.00;-21034.97;5020335;28;20855;-70
2021/08/04 00:45:04;;;;;;;0.70;0.60;;;;;;;12.94;100.00;-21033.84;5034858;28;20826;-70
2021/08/04 00:47:33;;;;;;;0.70;0.70;;;;;;;12.91;100.00;-21032.88;5033104;28;20829;-71
2021/08/04 00:50:03;;;;;;;0.70;0.70;;;;;;;12.86;100.00;-21031.66;5033132;28;20541;-71
2021/08/04 00:52:30;;;;;;;0.70;0.60;;;;;;;12.89;100.00;-21032.47;5033551;28;20414;-71
2021/08/04 00:54:59;;;;;;;0.70;0.70;;;;;;;12.86;100.00;-21031.66;5033114;28;20439;-70
2021/08/04 00:57:26;;;;;;;0.70;0.70;;;;;;;12.83;100.00;-21030.81;5032902;28;20475;-71
2021/08/04 00:59:54;;;;;;;0.70;0.60;;;;;;;12.83;100.00;-21030.81;5033428;28;20785;-70
2021/08/04 01:02:29;;;;;;;0.80;0.80;;;;;;;12.87;100.00;-21031.94;5033170;28;20410;-71
2021/08/04 01:05:04;;;;;;;0.70;0.60;;;;;;;12.83;100.00;-21030.81;5033040;28;20947;-72
2021/08/04 01:07:36;;;;;;;0.70;0.70;;;;;;;12.78;100.00;-21029.44;5032868;28;20514;-71
2021/08/04 01:10:09;;;;;;;0.80;0.70;;;;;;;12.77;100.00;-21029.31;5016872;28;20452;-72
2021/08/04 01:12:44;;;;;;;0.70;0.60;;;;;;;12.64;100.00;-21025.59;5016914;28;20458;-71
2021/08/04 01:15:13;;;;;;;0.70;0.60;;;;;;;12.57;100.00;-21023.94;5047397;28;20777;-71
2021/08/04 01:17:50;;;;;;;0.70;0.60;;;;;;;12.51;100.00;-21022.25;5035965;28;20454;-71
2021/08/04 01:20:23;;;;;;;0.70;0.70;;;;;;;12.49;100.00;-21021.59;5052612;28;20900;-71
2021/08/04 01:23:04;;;;;;;0.80;0.80;;;;;;;12.54;100.00;-21023.09;5052690;28;20826;-71
2021/08/04 01:25:39;;;;;;;0.70;0.67;;;;;;;12.38;100.00;-21018.69;5052707;28;20484;-71
2021/08/04 01:28:19;;;;;;;0.70;0.60;;;;;;;12.35;100.00;-21017.84;5053222;28;20462;-70
2021/08/04 01:30:50;;;;;;;0.70;0.60;;;;;;;12.38;100.00;-21018.53;5052237;28;20470;-71
2021/08/04 01:33:19;;;;;;;0.70;0.70;;;;;;;12.43;100.00;-21020.06;5028122;28;20518;-71
2021/08/04 01:35:48;;;;;;;0.70;0.60;;;;;;;12.44;100.00;-21020.34;5016295;28;20442;-72
2021/08/04 01:38:18;;;;;;;0.80;0.77;;;;;;;12.42;100.00;-21019.78;5016256;28;20460;-71
2021/08/04 01:40:48;;;;;;;1.90;0.97;;;;;;;12.37;100.00;-21018.41;5032424;28;20455;-71
2021/08/04 01:43:19;;;;;;;0.70;0.60;;;;;;;12.29;100.00;-21016.34;5032520;28;20434;-71
2021/08/04 01:46:08;;;;;;;0.70;0.60;;;;;;;12.36;100.00;-21018.13;5033503;28;20537;-71
2021/08/04 01:48:38;;;;;;;0.70;0.60;;;;;;;12.38;100.00;-21018.53;5031792;28;20502;-71
2021/08/04 01:51:09;;;;;;;0.70;0.70;;;;;;;12.30;100.00;-21016.47;5032328;28;20452;-71
2021/08/04 01:53:37;;;;;;;0.70;0.60;;;;;;;12.29;100.00;-21016.34;5032355;28;20457;-71
2021/08/04 01:56:05;;;;;;;0.70;0.70;;;;;;;12.23;100.00;-21014.53;5047335;28;20446;-70
2021/08/04 01:58:38;;;;;;;0.70;0.70;;;;;;;12.18;100.00;-21013.16;5052119;28;20493;-70
2021/08/04 02:01:07;;;;;;;0.70;0.60;;;;;;;12.17;100.00;-21013.03;5052379;28;20799;-70
2021/08/04 02:03:34;;;;;;;0.70;0.60;;;;;;;12.12;100.00;-21011.50;5053053;28;20423;-70
2021/08/04 02:06:09;;;;;;;0.70;0.67;;;;;;;12.09;100.00;-21010.94;5052094;28;20540;-71
2021/08/04 02:09:02;;;;;;;0.70;0.60;;;;;;;12.05;100.00;-21009.84;5045346;28;20509;-70
2021/08/04 02:11:41;;;;;;;0.77;0.70;;;;;;;12.05;100.00;-21009.72;5035792;28;20438;-71
2021/08/04 02:14:18;;;;;;;0.70;0.70;;;;;;;12.03;100.00;-21009.28;5051938;28;20447;-71
2021/08/04 02:16:54;;;;;;;0.70;0.60;;;;;;;12.01;100.00;-21008.75;5051989;28;20450;-70
2021/08/04 02:19:27;;;;;;;0.80;0.70;;;;;;;12.03;100.00;-21009.28;5051437;28;20410;-70
2021/08/04 02:22:02;;;;;;;0.73;0.70;;;;;;;12.07;100.00;-21010.41;5052037;28;20940;-70
2021/08/04 02:24:35;;;;;;;0.70;0.60;;;;;;;12.09;100.00;-21010.94;5035119;28;20498;-71
2021/08/04 02:27:05;;;;;;;0.70;0.70;;;;;;;12.08;100.00;-21010.69;5051481;28;20455;-73
2021/08/04 02:29:39;;;;;;;0.70;0.70;;;;;;;12.03;100.00;-21009.16;5055573;28;20466;-73
2021/08/04 02:32:08;;;;;;;0.70;0.60;;;;;;;11.99;100.00;-21008.19;5059121;28;20437;-73
2021/08/04 02:34:38;;;;;;;0.70;0.67;;;;;;;11.96;100.00;-21007.34;5042173;28;20537;-71
2021/08/04 02:37:07;;;;;;;0.80;0.80;;;;;;;11.92;100.00;-21006.25;5040409;28;20433;-71
2021/08/04 02:39:35;;;;;;;0.70;0.70;;;;;;;11.93;100.00;-21006.53;5040930;28;20462;-70
2021/08/04 02:42:06;;;;;;;0.70;0.60;;;;;;;11.92;100.00;-21006.25;5039364;28;20901;-72
2021/08/04 02:44:35;;;;;;;0.80;0.70;;;;;;;11.90;100.00;-21005.69;5038274;28;20974;-70
2021/08/04 02:47:04;;;;;;;0.70;0.70;;;;;;;11.87;100.00;-21004.75;5038265;28;20462;-72
2021/08/04 02:49:34;;;;;;;0.70;0.70;;;;;;;11.85;100.00;-21004.31;5038038;28;20785;-73
2021/08/04 02:52:21;;;;;;;0.70;0.70;;;;;;;11.78;100.00;-21002.38;5038793;28;20448;-72
2021/08/04 02:54:49;;;;;;;0.70;0.70;;;;;;;11.75;100.00;-21001.56;5039596;28;20438;-70
2021/08/04 02:57:18;;;;;;;0.70;0.60;;;;;;;11.74;100.00;-21001.28;5038423;28;20418;-70
2021/08/04 02:59:48;;;;;;;0.80;0.70;;;;;;;11.76;100.00;-21001.84;5039428;28;20431;-70
2021/08/04 03:02:15;;;;;;;0.70;0.60;;;;;;;11.74;100.00;-21001.28;5037644;28;20878;-70
2021/08/04 03:04:44;;;;;;;0.80;0.80;;;;;;;11.73;100.00;-21001.00;5021590;28;20464;-73
2021/08/04 03:07:11;;;;;;;0.70;0.60;;;;;;;11.74;100.00;-21001.28;5038158;28;20476;-73
2021/08/04 03:09:39;;;;;;;0.70;0.70;;;;;;;11.77;100.00;-21002.09;5048008;28;20475;-73
2021/08/04 03:12:09;;;;;;;0.80;0.70;;;;;;;11.79;100.00;-21002.66;5046000;28;20449;-73
2021/08/04 03:14:37;;;;;;;0.73;0.70;;;;;;;11.87;100.00;-21004.88;5021752;28;20437;-70
2021/08/04 03:17:06;;;;;;;0.70;0.70;;;;;;;11.91;100.00;-21005.97;5037564;28;20477;-73
2021/08/04 03:19:37;;;;;;;0.70;0.70;;;;;;;11.98;100.00;-21007.78;5037826;28;20468;-73
2021/08/04 03:22:05;;;;;;;0.80;0.80;;;;;;;11.97;100.00;-21007.63;5038260;28;20445;-73
2021/08/04 03:24:33;;;;;;;0.70;0.60;;;;;;;11.95;100.00;-21007.09;5039002;28;20488;-70
2021/08/04 03:27:01;;;;;;;0.80;0.70;;;;;;;11.94;100.00;-21006.81;5039659;28;20473;-73
2021/08/04 03:29:29;;;;;;;0.77;0.77;;;;;;;11.89;100.00;-21005.44;5021495;28;20496;-70
2021/08/04 03:31:57;;;;;;;0.70;0.70;;;;;;;11.77;100.00;-21002.25;5056091;28;20935;-73
2021/08/04 03:34:26;;;;;;;0.80;0.80;;;;;;;11.72;100.00;-21000.88;5059252;28;20422;-70
2021/08/04 03:36:56;;;;;;;0.80;0.70;;;;;;;11.66;100.00;-20999.22;5057767;28;20420;-73
2021/08/04 03:39:26;;;;;;;0.80;0.70;;;;;;;11.60;100.00;-20997.69;5059183;28;20454;-71
2021/08/04 03:41:53;;;;;;;0.70;0.70;;;;;;;11.58;100.00;-20997.13;5054255;28;20925;-71
2021/08/04 03:44:22;;;;;;;0.70;0.70;;;;;;;11.56;100.00;-20996.59;5056010;28;20428;-71
2021/08/04 03:46:52;;;;;;;0.70;0.70;;;;;;;11.54;100.00;-20996.03;5054945;28;20515;-71
2021/08/04 03:49:20;;;;;;;0.70;0.60;;;;;;;11.56;100.00;-20996.59;5055673;28;20414;-71
2021/08/04 03:51:49;;;;;;;0.70;0.60;;;;;;;11.59;100.00;-20997.41;5055769;28;20482;-71
2021/08/04 03:54:19;;;;;;;0.70;0.67;;;;;;;11.68;100.00;-20999.75;5038194;28;20460;-70
2021/08/04 03:56:48;;;;;;;0.70;0.70;;;;;;;11.69;100.00;-20999.91;5054478;28;20420;-73
2021/08/04 03:59:16;;;;;;;0.70;0.70;;;;;;;11.66;100.00;-20999.06;5038056;28;20837;-73
2021/08/04 04:01:45;;;;;;;0.80;0.80;;;;;;;11.64;100.00;-20998.66;5047628;28;20534;-72
2021/08/04 04:04:14;;;;;;;0.70;0.70;;;;;;;11.63;100.00;-20998.25;5026000;28;20987;-72
2021/08/04 04:06:42;;;;;;;0.77;0.70;;;;;;;11.63;100.00;-20998.25;5035361;28;20470;-72
2021/08/04 04:09:11;;;;;;;0.70;0.60;;;;;;;11.60;100.00;-20997.69;5034082;28;20465;-73
2021/08/04 04:11:39;;;;;;;0.70;0.60;;;;;;;11.59;100.00;-20997.41;5033994;28;20456;-74
2021/08/04 04:14:09;;;;;;;0.70;0.60;;;;;;;11.59;100.00;-20997.28;5035233;28;20428;-70
2021/08/04 04:16:38;;;;;;;0.70;0.60;;;;;;;11.63;100.00;-20998.25;5035373;28;20488;-73
2021/08/04 04:19:28;;;;;;;0.70;0.70;;;;;;;11.77;100.00;-21002.09;5033754;28;20438;-72
2021/08/04 04:21:57;;;;;;;0.70;0.70;;;;;;;11.84;100.00;-21004.03;5033517;28;20937;-73
2021/08/04 04:24:26;;;;;;;0.80;0.70;;;;;;;11.95;100.00;-21007.09;5033877;28;20504;-72
2021/08/04 04:26:54;;;;;;;0.70;0.60;;;;;;;12.00;100.00;-21008.47;5034440;28;20546;-70
2021/08/04 04:29:23;;;;;;;0.80;0.70;;;;;;;12.02;100.00;-21009.00;5033758;28;20744;-72
2021/08/04 04:31:53;;;;;;;0.70;0.60;;;;;;;12.06;100.00;-21010.13;5035336;28;20418;-72
2021/08/04 04:34:20;;;;;;;0.70;0.70;;;;;;;12.11;100.00;-21011.22;5017387;28;20437;-72
2021/08/04 04:36:48;;;;;;;0.70;0.70;;;;;;;12.20;100.00;-21013.72;5033130;28;20441;-72
2021/08/04 04:39:20;;;;;;;0.70;0.70;;;;;;;12.18;100.00;-21013.28;5033342;28;20491;-72
2021/08/04 04:41:49;;;;;;;0.70;0.60;;;;;;;12.30;100.00;-21016.47;5033819;28;20486;-73
2021/08/04 04:44:18;;;;;;;0.70;0.70;;;;;;;12.40;100.00;-21019.22;5044791;28;20468;-72
2021/08/04 04:46:46;;;;;;;0.70;0.60;;;;;;;12.53;100.00;-21022.81;5053294;28;20453;-72
2021/08/04 04:49:14;;;;;;;0.70;0.60;;;;;;;12.61;100.00;-21024.88;5053446;28;20455;-72
2021/08/04 04:51:43;;;;;;;0.70;0.60;;;;;;;12.71;100.00;-21027.50;5052710;28;20443;-72
2021/08/04 04:54:12;;;;;;;0.70;0.70;;;;;;;12.80;100.00;-21030.00;5054666;28;20506;-72
2021/08/04 04:56:40;;;;;;;0.70;0.60;;;;;;;12.87;100.00;-21031.94;5053362;28;20588;-72
2021/08/04 04:59:29;;;;;;;0.70;0.67;;;;;;;12.99;100.00;-21035.22;5053339;28;20423;-72
2021/08/04 05:01:58;;;;;;;0.70;0.70;;;;;;;13.09;100.00;-21037.72;5036883;28;20459;-72
2021/08/04 05:04:26;;;;;;;0.70;0.70;;;;;;;13.17;100.00;-21039.94;5050878;28;20956;-72
2021/08/04 05:06:54;;;;;;;0.70;0.70;;;;;;;13.27;100.00;-21042.81;5052577;28;20563;-72
2021/08/04 05:09:21;;;;;;;0.80;0.80;;;;;;;13.38;100.00;-21045.72;5053059;28;20462;-72
2021/08/04 05:11:50;;;;;;;0.70;0.70;;;;;;;13.50;100.00;-21048.88;5053198;28;20997;-72
2021/08/04 05:14:18;;;;;;;0.70;0.60;;;;;;;13.59;100.00;-21051.22;5036762;28;20547;-70
2021/08/04 05:16:49;;;;;;;0.70;0.60;;;;;;;13.64;100.00;-21052.63;5052881;28;20427;-72
2021/08/04 05:19:18;;;;;;;0.70;0.60;;;;;;;13.65;100.00;-21052.88;5051020;28;20483;-72
2021/08/04 05:21:46;;;;;;;0.80;0.70;;;;;;;13.70;100.00;-21054.41;5052161;28;20814;-72
2021/08/04 05:24:14;;;;;;;0.70;0.70;;;;;;;13.71;100.00;-21054.53;5052675;28;20444;-72
2021/08/04 05:26:43;;;;;;;0.70;0.70;;;;;;;13.76;100.00;-21056.06;5052792;28;20443;-72
2021/08/04 05:29:11;;;;;;;0.80;0.77;;;;;;;13.88;100.00;-21059.09;5036453;28;20439;-72
2021/08/04 05:31:39;;;;;;;0.70;0.70;;;;;;;13.99;100.00;-21062.13;5052755;28;20425;-72
2021/08/04 05:34:10;;;;;;;0.70;0.70;;;;;;;14.23;100.00;-21068.59;5052412;28;20471;-72
2021/08/04 05:36:38;;;;;;;0.70;0.70;;;;;;;14.30;100.00;-21070.53;5053407;28;20427;-72
2021/08/04 05:39:07;;;;;;;0.70;0.60;;;;;;;14.44;100.00;-21074.22;5053726;28;20537;-72
2021/08/04 05:41:35;;;;;;;0.70;0.70;;;;;;;14.56;100.00;-21077.41;5052407;28;20444;-72
2021/08/04 05:44:03;;;;;;;0.70;0.70;;;;;;;14.70;100.00;-21081.25;5052430;28;20488;-73
2021/08/04 05:46:31;;;;;;;0.70;0.60;;;;;;;14.81;100.00;-21084.28;5053755;28;21005;-72
2021/08/04 05:49:00;;;;;;;0.70;0.70;;;;;;;14.76;100.00;-21082.78;5053987;28;20470;-72
2021/08/04 05:51:30;;;;;;;0.70;0.60;;;;;;;14.78;100.00;-21083.31;5053380;28;20457;-72
2021/08/04 05:54:00;;;;;;;0.80;0.70;;;;;;;14.84;100.00;-21084.97;5051980;28;20470;-72
2021/08/04 05:56:32;;;;;;;0.70;0.70;;;;;;;14.95;100.00;-21088.13;5049395;28;20885;-72
2021/08/04 05:58:59;;;;;;;0.70;0.60;;;;;;;15.02;100.00;-21089.78;5035202;28;20443;-72
2021/08/04 06:01:27;;;;;;;0.70;0.60;;;;;;;14.96;100.00;-21088.41;5015960;28;20454;-73
2021/08/04 06:03:56;;;;;;;1.30;1.20;;;;;;;14.93;100.00;-21087.59;5031862;28;20941;-72
2021/08/04 06:06:24;;;;;;;0.70;0.60;;;;;;;15.03;100.00;-21090.06;5032308;28;20465;-72
2021/08/04 06:08:53;;;;;;;0.70;0.60;;;;;;;15.09;100.00;-21091.84;5031688;28;20472;-72
2021/08/04 06:11:21;;;;;;;0.80;0.80;;;;;;;15.29;100.00;-21097.06;5032029;28;20502;-72
2021/08/04 06:13:49;;;;;;;0.70;0.60;;;;;;;15.27;100.00;-21096.66;5032222;28;20427;-72
2021/08/04 06:16:17;;;;;;;0.70;0.70;;;;;;;15.28;100.00;-21096.94;5031988;28;20461;-72
2021/08/04 06:18:45;;;;;;;0.70;0.60;;;;;;;15.35;100.00;-21098.88;5031709;28;20471;-72
2021/08/04 06:21:13;;;;;;;0.70;0.60;;;;;;;15.38;100.00;-21099.69;5041972;28;20440;-73
2021/08/04 06:23:41;;;;;;;0.80;0.80;;;;;;;15.46;100.00;-21101.88;5053220;28;20447;-72
2021/08/04 06:26:10;;;;;;;0.70;0.70;;;;;;;15.42;100.00;-21100.66;5051951;28;20438;-72
2021/08/04 06:28:43;;;;;;;1.63;1.53;;;;;;;15.35;100.00;-21098.88;5052965;28;20534;-72
2021/08/04 06:31:11;;;;;;;0.70;0.60;;;;;;;15.36;100.00;-21099.13;5034936;28;20483;-72
2021/08/04 06:33:39;;;;;;;0.70;0.70;;;;;;;15.35;100.00;-21098.88;5051674;28;20450;-72
2021/08/04 06:36:08;;;;;;;0.70;0.70;;;;;;;15.39;100.00;-21099.81;5052385;28;20428;-72
2021/08/04 06:38:35;;;;;;;0.70;0.70;;;;;;;15.30;100.00;-21097.50;5052825;28;20443;-72
2021/08/04 06:41:04;;;;;;;0.70;0.60;;;;;;;15.35;100.00;-21098.88;5035436;28;20450;-72
2021/08/04 06:43:33;;;;;;;0.70;0.60;;;;;;;15.40;100.00;-21100.09;5051915;28;20429;-73
2021/08/04 06:46:07;;;;;;;0.70;0.70;;;;;;;15.33;100.00;-21098.31;5035335;28;20798;-72
2021/08/04 06:48:36;;;;;;;0.70;0.60;;;;;;;15.33;100.00;-21098.19;5052745;28;20505;-72
2021/08/04 06:51:04;;;;;;;0.70;0.60;;;;;;;15.33;100.00;-21098.31;5046533;28;20875;-72
2021/08/04 06:53:32;;;;;;;0.70;0.70;;;;;;;15.40;100.00;-21100.25;5031371;28;20816;-72
2021/08/04 06:56:00;;;;;;;0.70;0.70;;;;;;;15.51;100.00;-21103.00;5031686;28;20441;-72
2021/08/04 06:58:27;;;;;;;0.70;0.70;;;;;;;15.53;100.00;-21103.53;5015247;28;20455;-72
2021/08/04 07:00:56;;;;;;;0.70;0.70;;;;;;;15.63;100.00;-21106.28;5048965;28;20435;-72
2021/08/04 07:03:25;;;;;;;0.70;0.60;;;;;;;15.77;100.00;-21110.13;5051475;28;20502;-72
2021/08/04 07:05:55;;;;;;;0.70;0.60;;;;;;;15.98;100.00;-21115.63;5035230;28;20458;-72
2021/08/04 07:08:23;;;;;;;0.70;0.70;;;;;;;16.17;100.00;-21120.84;5051627;28;20519;-71
2021/08/04 07:10:52;;;;;;;0.70;0.60;;;;;;;16.33;100.00;-21125.13;5034938;28;20439;-72
2021/08/04 07:13:22;;;;;;;0.70;0.60;;;;;;;16.35;100.00;-21125.81;5034648;28;20951;-72
2021/08/04 07:15:50;;;;;;;0.70;0.60;;;;;;;16.23;100.00;-21122.50;5053819;28;20411;-72
2021/08/04 07:18:19;;;;;;;0.70;0.60;;;;;;;16.61;100.00;-21132.66;5055803;28;20441;-72
2021/08/04 07:20:47;;;;;;;0.70;0.70;;;;;;;16.59;100.00;-21132.13;5048805;28;20439;-72
2021/08/04 07:23:15;;;;;;;0.70;0.70;;;;;;;16.61;100.00;-21132.66;5035058;28;20470;-72
2021/08/04 07:25:43;;;;;;;0.80;0.70;;;;;;;17.00;100.00;-21143.09;5034929;28;20447;-72
2021/08/04 07:28:34;;;;;;;0.70;0.60;;;;;;;16.89;100.00;-21140.22;5035263;28;20994;-72
2021/08/04 07:31:01;;;;;;;0.80;0.70;;;;;;;16.84;100.00;-21138.84;5034702;28;20490;-72
2021/08/04 07:33:31;;;;;;;0.70;0.60;;;;;;;16.84;100.00;-21121.91;5018649;28;20534;-72
2021/08/04 07:35:59;;;;;;;0.70;0.60;;;;;;;16.98;100.00;-20890.16;5034522;28;20439;-72
2021/08/04 07:38:27;;;;;;;0.77;0.70;;;;;;;16.98;100.00;-20627.16;5035053;28;20452;-71
2021/08/04 07:40:55;;;;;;;0.70;0.60;;;;;;;17.25;100.00;-20264.56;5038220;28;20426;-72
2021/08/04 07:43:23;;;;;;;0.70;0.70;;;;;;;17.49;100.00;-19812.09;5055789;28;20435;-72
2021/08/04 07:45:52;;;;;;;0.70;0.60;;;;;;;17.79;100.00;-19246.84;5038379;28;20439;-72
2021/08/04 07:48:19;;;;;;;0.70;0.60;;;;;;;17.85;100.00;-18807.06;5054646;28;20490;-72
2021/08/04 07:50:48;;;;;;;0.70;0.60;;;;;;;17.99;100.00;-18221.88;5043485;28;20452;-73
2021/08/04 07:53:36;;;;;;;0.70;0.60;;;;;;;17.96;100.00;-17810.28;5050431;28;20797;-73
2021/08/04 07:56:04;;;;;;;0.70;0.70;;;;;;;17.74;100.00;-17374.47;5054884;28;20803;-72
2021/08/04 07:58:34;;;;;;;0.87;0.87;;;;;;;17.83;100.00;-16706.69;5038197;28;20435;-72
2021/08/04 08:01:03;;;;;;;0.70;0.60;;;;;;;17.97;100.00;-15902.41;5055185;28;20408;-71
2021/08/04 08:03:31;;;;;;;0.70;0.70;;;;;;;18.03;100.00;-15395.81;5055220;28;20414;-72
2021/08/04 08:06:03;;;;;;;0.70;0.60;;;;;;;18.10;100.00;-14630.19;5055222;28;20491;-72
2021/08/04 08:08:31;;;;;;;0.70;0.60;;;;;;;18.23;100.00;-14020.16;5054297;28;20477;-72
2021/08/04 08:10:59;;;;;;;0.70;0.70;;;;;;;18.77;100.00;-12922.13;5037539;28;21058;-72
2021/08/04 08:13:27;;;;;;;0.70;0.60;;;;;;;18.52;100.00;-12745.84;5055475;28;20744;-72
2021/08/04 08:15:55;;;;;;;0.70;0.70;;;;;;;18.81;100.00;-12032.25;5037836;28;20413;-71
2021/08/04 08:18:23;;;;;;;0.70;0.70;;;;;;;19.29;100.00;-11269.00;5053559;28;20456;-72
2021/08/04 08:20:51;;;;;;;0.70;0.60;;;;;;;19.56;100.00;-11384.06;5043917;28;20435;-72
2021/08/04 08:23:20;;;;;;;0.70;0.60;;;;;;;19.33;100.00;-12517.25;5033936;28;20449;-72
2021/08/04 08:25:49;;;;;;;0.80;0.77;;;;;;;19.45;100.00;-12916.13;5033951;28;20796;-71
2021/08/04 08:28:19;;;;;;;0.70;0.60;;;;;;;19.73;100.00;-13230.81;5045241;28;20521;-71
2021/08/04 08:30:51;;;;;;;0.77;0.70;;;;;;;19.97;100.00;-15626.09;5037597;28;20803;-72
2021/08/04 08:33:39;;;;;;;0.80;0.70;;;;;;;20.27;100.00;-18761.16;5054244;28;20413;-72
2021/08/04 08:36:07;;;;;;;0.70;0.60;;;;;;;20.33;100.00;-21232.50;5053497;28;20435;-72
2021/08/04 08:38:38;;;;;;;0.70;0.60;;;;;;;20.78;100.00;-21244.38;5036712;28;20511;-72
2021/08/04 08:41:07;;;;;;;0.70;0.60;;;;;;;20.69;100.00;-21242.19;5035280;28;20913;-72
2021/08/04 08:43:36;;;;;;;0.70;0.60;;;;;;;21.10;100.00;-21253.09;5033788;28;20414;-72
2021/08/04 08:46:05;;;;;;;0.70;0.60;;;;;;;21.45;100.00;-21262.38;5034529;28;20883;-72
2021/08/04 08:48:34;;;;;;;0.70;0.60;;;;;;;21.90;100.00;-21274.50;5017204;28;20465;-72
2021/08/04 08:51:01;;;;;;;0.70;0.50;;;;;;;21.91;100.00;-21274.78;5035823;28;20449;-72
2021/08/04 08:53:32;;;;;;;0.70;0.50;;;;;;;22.29;100.00;-21284.75;5032844;28;20453;-71
2021/08/04 08:56:04;;;;;;;0.70;0.50;;;;;;;22.72;100.00;-21296.16;5042944;28;20852;-71
2021/08/04 08:58:34;;;;;;;0.70;0.50;;;;;;;23.04;100.00;-21304.88;5054633;28;20428;-72
2021/08/04 09:01:02;;;;;;;0.70;0.50;;;;;;;23.45;100.00;-21315.75;5052440;28;20483;-72
2021/08/04 09:03:30;;;;;;;0.70;0.50;;;;;;;22.72;100.00;-21296.16;5052894;28;20436;-72
2021/08/04 09:05:57;;;;;;;0.70;0.50;;;;;;;22.64;100.00;-21294.28;5053283;28;20489;-72
2021/08/04 09:08:27;;;;;;;0.70;0.50;;;;;;;23.06;100.00;-21305.44;5052679;28;20837;-72
2021/08/04 09:10:55;;;;;;;0.70;0.50;;;;;;;23.98;100.00;-21329.91;5053092;28;20440;-72
2021/08/04 09:13:34;;;;;;;0.70;0.50;;;;;;;25.31;100.00;-21365.19;5054074;28;20482;-72
2021/08/04 09:16:06;;;;;;;0.70;0.50;;;;;;;24.79;100.00;-21351.34;5036480;28;20432;-72
2021/08/04 09:18:42;;;;;;;0.70;0.50;;;;;;;25.20;100.00;-21362.34;5016788;28;20448;-72
2021/08/04 09:21:12;;;;;;;0.70;0.50;;;;;;;25.32;100.00;-21365.47;5032719;28;20441;-70
2021/08/04 09:23:43;;;;;;;0.70;0.50;;;;;;;25.22;100.00;-21362.75;5032871;28;20545;-72
2021/08/04 09:26:12;;;;;;;0.80;0.77;;;;;;;25.75;100.00;-21376.97;5033039;28;20409;-72
2021/08/04 09:28:59;;;;;;;0.70;0.60;;;;;;;25.83;100.00;-21379.00;5032709;28;21029;-72
2021/08/04 09:31:46;;;;;;;0.70;0.50;;;;;;;25.44;100.00;-21368.72;5032185;28;20472;-73
2021/08/04 09:34:34;;;;;;;0.80;0.70;;;;;;;26.55;100.00;-21397.97;5034130;28;20416;-72
2021/08/04 09:37:04;;;;;;;0.70;0.50;;;;;;;26.93;100.00;-21408.25;5032629;28;20433;-72
2021/08/04 09:39:34;;;;;;;0.70;0.50;;;;;;;26.47;100.00;-21396.09;5032732;28;20490;-72
2021/08/04 09:42:03;;;;;;;0.70;0.50;;;;;;;26.90;100.00;-21407.44;5033732;28;20848;-70
2021/08/04 09:44:34;;;;;;;0.70;0.50;;;;;;;27.68;100.00;-21427.97;5032970;28;20464;-72
2021/08/04 09:47:07;;;;;;;0.70;0.50;;;;;;;27.48;100.00;-21422.72;5023473;28;20968;-73
2021/08/04 09:49:35;;;;;;;0.77;0.60;;;;;;;26.84;100.00;-21405.69;5045139;28;20469;-72
2021/08/04 09:52:04;;;;;;;0.80;0.70;;;;;;;28.88;100.00;-21459.84;5052495;28;20428;-72
2021/08/04 09:54:38;;;;;;;0.80;0.50;;;;;;;29.16;100.00;-21466.97;5052507;28;20535;-74
2021/08/04 09:57:06;;;;;;;0.80;0.50;;;;;;;28.40;100.00;-21447.03;5051930;28;20404;-73
2021/08/04 09:59:36;;;;;;;0.80;0.50;;;;;;;28.90;100.00;-21460.25;5048774;28;20423;-73
2021/08/04 10:02:25;;;;;;;0.80;0.50;;;;;;;29.91;100.00;-21486.78;5051834;28;20474;-73
2021/08/04 10:05:16;;;;;;;0.80;0.50;;;;;;;28.11;100.00;-21439.47;5051920;28;20458;-71
2021/08/04 10:08:10;;;;;;;0.80;0.50;;;;;;;26.49;100.00;-21396.63;5051607;28;20503;-71
2021/08/04 10:10:39;;;;;;;0.80;0.50;;;;;;;25.09;100.00;-21359.34;5051991;28;20858;-73
2021/08/04 10:13:14;;;;;;;0.70;0.50;;;;;;;25.29;100.00;-21364.66;5051873;28;20523;-73
2021/08/04 10:15:45;;;;;;;0.70;0.50;;;;;;;25.18;100.00;-21361.78;5035412;28;20436;-73
2021/08/04 10:18:16;;;;;;;0.73;0.57;;;;;;;24.83;100.00;-21352.56;5051644;28;20449;-73
2021/08/04 10:20:45;;;;;;;0.70;0.50;;;;;;;24.10;100.00;-21333.03;5048410;28;20523;-73
2021/08/04 10:23:16;;;;;;;0.70;0.50;;;;;;;23.70;100.00;-21322.28;5033252;28;20479;-73
2021/08/04 10:25:47;;;;;;;0.70;0.50;;;;;;;24.38;100.00;-21340.50;5032149;28;20409;-73
2021/08/04 10:28:16;;;;;;;0.70;0.50;;;;;;;25.91;100.00;-21381.03;5031842;28;20413;-73
2021/08/04 10:30:46;;;;;;;0.70;0.50;;;;;;;25.94;100.00;-21382.00;5015378;28;20445;-73
2021/08/04 10:33:14;;;;;;;0.70;0.50;;;;;;;25.68;100.00;-21374.94;5031602;28;20940;-74
2021/08/04 10:35:46;;;;;;;0.70;0.50;;;;;;;23.98;100.00;-21329.91;5031689;28;20471;-74
2021/08/04 10:38:17;;;;;;;0.70;0.60;;;;;;;23.84;100.00;-21326.09;5031769;28;20457;-74
2021/08/04 10:40:46;;;;;;;0.70;0.50;;;;;;;23.65;100.00;-21320.94;5033207;28;20417;-74
2021/08/04 10:43:35;;;;;;;0.70;0.50;;;;;;;23.09;100.00;-21306.25;5031422;28;20445;-72
2021/08/04 10:46:42;;;;;;;0.70;0.50;;;;;;;23.45;100.00;-21315.75;5031384;28;20552;-74
2021/08/04 10:49:21;;;;;;;0.70;0.50;;;;;;;25.02;100.00;-21357.47;5032906;28;20856;-73
2021/08/04 10:52:21;;;;;;;0.80;0.80;;;;;;;26.00;100.00;-21383.63;5055195;28;20947;-73
2021/08/04 10:55:11;;;;;;;0.70;0.50;;;;;;;25.17;100.00;-21361.41;4979003;28;20559;-73
2021/08/04 10:58:16;;;;;;;0.70;0.50;;;;;;;24.22;100.00;-21336.16;5050616;28;20486;-73
2021/08/04 11:00:46;;;;;;;0.70;0.60;;;;;;;23.25;100.00;-21310.31;5055421;28;20439;-73
2021/08/04 11:03:56;;;;;;;0.70;0.50;;;;;;;23.96;100.00;-21329.34;5038146;28;20448;-73
2021/08/04 11:06:26;;;;;;;0.70;0.50;;;;;;;24.29;100.00;-21338.03;5035161;28;20460;-74
2021/08/04 11:09:29;;;;;;;0.70;0.50;;;;;;;25.59;100.00;-21372.66;5018721;28;20515;-74
2021/08/04 11:12:00;;;;;;;0.70;0.50;;;;;;;26.32;100.00;-21392.00;5035200;28;20444;-74
2021/08/04 11:14:40;;;;;;;0.70;0.50;;;;;;;27.13;100.00;-21413.38;5018974;28;20449;-74
2021/08/04 11:17:10;;;;;;;1.90;1.27;;;;;;;25.11;100.00;-21359.75;5034989;28;20433;-74
2021/08/04 11:20:10;;;;;;;0.70;0.50;;;;;;;24.02;100.00;-21331.00;5035338;28;20433;-74
2021/08/04 11:22:47;;;;;;;0.80;0.60;;;;;;;23.15;100.00;-21307.75;5053736;28;20448;-74
2021/08/04 11:25:38;;;;;;;0.70;0.50;;;;;;;22.70;100.00;-21295.63;5038639;28;20448;-73
2021/08/04 11:28:11;;;;;;;0.70;0.57;;;;;;;22.66;100.00;-21294.81;5038880;28;20478;-73
2021/08/04 11:30:41;;;;;;;0.77;0.60;;;;;;;22.48;100.00;-21289.91;5055113;28;20530;-74
2021/08/04 11:33:32;;;;;;;0.70;0.60;;;;;;;22.68;100.00;-21295.22;5053677;28;20486;-73
2021/08/04 11:36:11;;;;;;;0.70;0.60;;;;;;;22.36;100.00;-21286.66;5038752;28;20436;-73